Data for 03/13/2010

Time Sea-Level Adjusted Pressure Absolute Pressure Temperature Relative Humidity Dew Point   
(mb) (inHg) (mb) (inHg) (C) (F) (%) (C) (F)
00:05 1009 29.8 838 24.75 5.9 42.7 33 -9 15.8
00:10 1009 29.8 838 24.75 6.1 43 35 -8.1 17.4
00:15 1009 29.8 838 24.75 5.7 42.3 36 -8.1 17.4
00:20 1009 29.8 838 24.75 5.5 42 37 -7.9 17.7
00:25 1009 29.8 838 24.75 5.4 41.8 38 -7.6 18.3
00:30 1009 29.8 838 24.75 5.2 41.3 40 -7.4 18.6
00:35 1009 29.8 838 24.75 5.1 41.1 40 -7.6 18.4
00:40 1009 29.8 838 24.75 5 41.1 40 -7.4 18.6
00:45 1009 29.8 838 24.75 5 41 40 -7.4 18.7
00:50 1009 29.8 838 24.75 4.9 40.9 40 -7.5 18.5
00:55 1009 29.8 838 24.75 5.1 41.1 39 -7.7 18.1
01:00 1009 29.8 838 24.75 5.1 41.2 40 -7.5 18.5
01:05 1009 29.8 838 24.75 4.9 40.8 40 -7.7 18.1
01:10 1009 29.8 838 24.75 4.9 40.8 40 -7.5 18.6
01:15 1009 29.8 838 24.75 4.9 40.9 39 -7.8 18
01:20 1009 29.8 838 24.75 5.2 41.3 38 -8 17.5
01:25 1008 29.77 838 24.75 5.1 41.2 37 -8.3 17.1
01:30 1008 29.77 838 24.75 5.1 41.1 39 -7.6 18.2
01:35 1008 29.77 837 24.72 4.8 40.7 38 -8.2 17.2
01:40 1008 29.77 837 24.72 5.1 41.1 37 -8.4 16.8
01:45 1008 29.77 837 24.72 5.3 41.6 36 -8.7 16.3
01:50 1008 29.77 837 24.72 5.4 41.7 36 -8.6 16.5
01:55 1008 29.77 837 24.72 5.4 41.7 36 -8.7 16.4
02:00 1008 29.77 837 24.72 5.4 41.7 33 -9.6 14.7
02:05 1008 29.77 838 24.75 5.9 42.6 34 -8.9 15.9
02:10 1008 29.77 837 24.72 5.9 42.6 34 -8.8 16.1
02:15 1008 29.77 837 24.72 5.7 42.2 34 -9 15.8
02:20 1008 29.77 837 24.72 6.1 43 32 -9.6 14.7
02:25 1008 29.77 837 24.72 6.5 43.6 32 -9 15.7
02:30 1008 29.77 837 24.72 6.3 43.4 33 -9 15.8
02:35 1008 29.77 837 24.72 6.2 43.1 34 -8.7 16.4
02:40 1008 29.77 837 24.72 6 42.8 34 -8.8 16.2
02:45 1008 29.77 837 24.72 6.1 43.1 33 -9.1 15.6
02:50 1008 29.77 837 24.72 6.2 43.2 33 -9.1 15.7
02:55 1008 29.77 837 24.72 6.3 43.3 33 -8.8 16.1
03:00 1008 29.77 837 24.72 6 42.8 35 -8.5 16.8
03:05 1008 29.77 837 24.72 5.8 42.4 35 -8.7 16.4
03:10 1008 29.77 837 24.72 5.8 42.4 35 -8.5 16.7
03:15 1008 29.77 837 24.72 5.7 42.3 34 -8.9 16
03:20 1008 29.77 837 24.72 5.7 42.3 34 -9.1 15.6
03:25 1008 29.77 837 24.72 5.8 42.4 34 -9 15.9
03:30 1008 29.77 837 24.72 5.7 42.3 35 -8.6 16.6
03:35 1008 29.77 837 24.72 5.6 42 34 -9 15.9
03:40 1008 29.77 837 24.72 5.7 42.3 35 -8.8 16.2
03:45 1008 29.77 837 24.72 5.6 42.1 34 -9 15.7
03:50 1007 29.74 837 24.72 5.6 42 36 -8.5 16.7
03:55 1008 29.77 837 24.72 5.4 41.7 35 -8.8 16.1
04:00 1007 29.74 837 24.72 5.6 42.1 35 -8.7 16.3
04:05 1007 29.74 837 24.72 5.9 42.5 30 -10.3 13.5
04:10 1007 29.74 837 24.72 6.7 44 30 -9.9 14.3
04:15 1007 29.74 837 24.72 7.3 45.2 28 -10.1 13.8
04:20 1007 29.74 837 24.72 7.5 45.4 26 -10.7 12.7
04:25 1007 29.74 836 24.69 7.9 46.2 27 -9.8 14.4
04:30 1007 29.74 837 24.72 7.3 45.1 30 -9.3 15.3
04:35 1007 29.74 836 24.69 6.7 44.1 30 -9.7 14.6
04:40 1007 29.74 837 24.72 6.3 43.3 32 -9.1 15.7
04:45 1007 29.74 837 24.72 5.7 42.3 34 -9.1 15.6
04:50 1007 29.74 837 24.72 5.4 41.7 35 -8.9 16
04:55 1007 29.74 837 24.72 5.1 41.2 36 -8.9 16
05:00 1007 29.74 837 24.72 4.9 40.9 37 -8.7 16.3
05:05 1007 29.74 837 24.72 4.8 40.7 37 -8.8 16.2
05:10 1007 29.74 836 24.69 4.7 40.5 37 -8.6 16.5
05:15 1007 29.74 836 24.69 4.5 40.1 38 -8.7 16.3
05:20 1007 29.74 836 24.69 4.7 40.4 35 -9.4 15.1
05:25 1007 29.74 836 24.69 4.7 40.5 38 -8.4 16.9
05:30 1007 29.74 836 24.69 4.4 40 37 -8.9 16
05:35 1007 29.74 836 24.69 4.3 39.8 38 -8.6 16.4
05:40 1007 29.74 836 24.69 4.2 39.6 39 -8.6 16.5
05:45 1007 29.74 836 24.69 4 39.2 39 -8.7 16.4
05:50 1007 29.74 836 24.69 3.8 38.8 41 -8.4 16.9
05:55 1007 29.74 836 24.69 3.6 38.4 42 -8.3 17.1
06:00 1007 29.74 836 24.69 3.8 38.8 41 -8.3 17
06:05 1007 29.74 836 24.69 3.6 38.6 41 -8.4 17
06:10 1007 29.74 836 24.69 3.7 38.7 40 -8.7 16.3
06:15 1007 29.74 836 24.69 3.9 39.1 39 -8.7 16.4
06:20 1007 29.74 837 24.72 4.2 39.6 38 -8.8 16.1
06:25 1007 29.74 836 24.69 4.4 39.8 38 -8.7 16.4
06:30 1007 29.74 836 24.69 4.6 40.3 37 -9 15.8
06:35 1007 29.74 837 24.72 4.6 40.3 38 -8.5 16.8
06:40 1007 29.74 836 24.69 4.3 39.7 39 -8.5 16.8
06:45 1007 29.74 837 24.72 4.1 39.4 39 -8.5 16.7
06:50 1007 29.74 837 24.72 4.2 39.6 40 -8.3 17
06:55 1007 29.74 837 24.72 3.8 38.9 42 -8.1 17.4
07:00 1007 29.74 837 24.72 3.7 38.6 42 -8 17.5
07:05 1007 29.74 837 24.72 3.5 38.3 43 -8.1 17.5
07:10 1008 29.77 837 24.72 3.4 38.2 44 -7.8 18
07:15 1008 29.77 837 24.72 3.5 38.3 43 -7.9 17.8
07:20 1008 29.77 837 24.72 3.2 37.8 45 -7.7 18.2
07:25 1008 29.77 837 24.72 3.4 38 44 -7.8 18
07:30 1008 29.77 837 24.72 3.2 37.7 45 -7.6 18.4
07:35 1008 29.77 837 24.72 3.2 37.7 43 -8.2 17.3
07:40 1008 29.77 837 24.72 3.6 38.5 41 -8.4 17
07:45 1008 29.77 837 24.72 3.6 38.5 43 -7.9 17.7
07:50 1008 29.77 837 24.72 3.6 38.4 43 -7.9 17.7
07:55 1008 29.77 837 24.72 3.8 38.9 43 -7.7 18.1
08:00 1008 29.77 837 24.72 3.9 39.1 43 -7.6 18.3
08:05 1008 29.77 837 24.72 3.8 38.9 43 -7.7 18.2
08:10 1008 29.77 837 24.72 3.6 38.5 45 -7.3 18.8
08:15 1008 29.77 837 24.72 3.1 37.6 46 -7.3 18.8
08:20 1008 29.77 837 24.72 2.6 36.7 47 -7.6 18.3
08:25 1008 29.77 837 24.72 2.7 36.8 47 -7.5 18.5
08:30 1008 29.77 837 24.72 2.9 37.2 47 -7.3 18.8
08:35 1008 29.77 837 24.72 3.2 37.8 46 -7.4 18.7
08:40 1008 29.77 837 24.72 3.6 38.5 43 -7.7 18.1
08:45 1008 29.77 837 24.72 3.8 38.9 43 -7.7 18.2
08:50 1008 29.77 837 24.72 4.1 39.5 43 -7.5 18.6
08:55 1008 29.77 838 24.75 4.4 39.9 43 -7.3 18.9
09:00 1008 29.77 838 24.75 4.3 39.7 43 -7.2 19.1
09:05 1009 29.8 838 24.75 4.4 39.9 42 -7.5 18.5
09:10 1009 29.8 838 24.75 4.9 40.8 39 -7.8 18
09:15 1009 29.8 838 24.75 5.3 41.6 38 -8 17.6
09:20 1009 29.8 838 24.75 5.6 42.1 40 -7 19.4
09:25 1009 29.8 838 24.75 6 42.7 39 -6.9 19.6
09:30 1009 29.8 838 24.75 5.8 42.4 42 -6.1 21
09:35 1009 29.8 838 24.75 5.8 42.4 41 -6.3 20.6
09:40 1009 29.8 838 24.75 5.8 42.5 41 -6.4 20.5
09:45 1009 29.8 838 24.75 5.7 42.2 38 -7.5 18.5
09:50 1009 29.8 838 24.75 5.9 42.6 38 -7.2 19
09:55 1009 29.8 838 24.75 6.1 42.9 38 -7.3 18.9
10:00 1009 29.8 838 24.75 6.1 43 39 -6.8 19.8
10:05 1009 29.8 838 24.75 6.1 42.9 40 -6.5 20.2
10:10 1009 29.8 839 24.78 5.9 42.7 38 -7.4 18.7
10:15 1010 29.83 839 24.78 5.7 42.3 38 -7.5 18.5
10:20 1010 29.83 839 24.78 5.6 42 40 -7.1 19.2
10:25 1010 29.83 839 24.78 5.3 41.6 41 -6.9 19.5
10:30 1010 29.83 839 24.78 5.1 41.2 42 -6.7 19.9
10:35 1010 29.83 839 24.78 5 40.9 43 -6.5 20.3
10:40 1010 29.83 839 24.78 4.8 40.7 44 -6.5 20.2
10:45 1010 29.83 839 24.78 4.9 40.9 45 -6.2 20.9
10:50 1010 29.83 839 24.78 4.8 40.6 45 -6.2 20.9
10:55 1010 29.83 840 24.81 4.7 40.4 46 -6 21.3
11:00 1011 29.85 840 24.81 4.8 40.6 46 -5.8 21.5
11:05 1011 29.85 840 24.81 4.9 40.9 45 -6.1 21
11:10 1011 29.85 840 24.81 5.1 41.2 43 -6.3 20.6
11:15 1011 29.85 840 24.81 5.1 41.1 44 -6.1 21
11:20 1011 29.85 840 24.81 5.3 41.5 44 -6.1 21.1
11:25 1011 29.85 840 24.81 5.4 41.7 45 -5.7 21.8
11:30 1011 29.85 840 24.81 5.6 42 44 -5.7 21.8
11:35 1011 29.85 840 24.81 5.1 41.1 46 -5.6 21.9
11:40 1011 29.85 840 24.81 4.5 40.1 50 -5 22.9
11:45 1011 29.85 840 24.81 3.6 38.4 51 -5.5 22
11:50 1011 29.85 841 24.83 3.7 38.6 50 -5.7 21.7
11:55 1011 29.85 841 24.83 3.9 38.9 51 -5.5 22.2
12:00 1012 29.88 841 24.83 3.8 38.9 53 -5 23
12:05 1012 29.88 841 24.83 4.2 39.6 51 -5.1 22.9
12:10 1012 29.88 841 24.83 4.4 39.9 55 -4 24.9
12:15 1012 29.88 841 24.83 4.7 40.4 56 -3.3 26
12:20 1012 29.88 841 24.83 4.9 40.9 58 -2.6 27.3
12:25 1012 29.88 841 24.83 5 41 58 -2.6 27.4
12:30 1012 29.88 841 24.83 5.1 41.2 55 -3.3 26.1
12:35 1012 29.88 841 24.83 5 41.1 54 -3.6 25.5
12:40 1012 29.88 841 24.83 5.1 41.2 55 -3.2 26.2
12:45 1012 29.88 841 24.83 5 41 56 -3 26.5
12:50 1012 29.88 841 24.83 5 40.9 58 -2.6 27.3
12:55 1012 29.88 841 24.83 5 41 58 -2.6 27.4
13:00 1012 29.88 841 24.83 4.9 40.9 59 -2.5 27.5
13:05 1012 29.88 841 24.83 4.8 40.6 60 -2.2 28
13:10 1012 29.88 842 24.86 4.8 40.7 61 -2 28.4
13:15 1012 29.88 842 24.86 4.9 40.9 61 -1.9 28.7
13:20 1012 29.88 842 24.86 5 41 62 -1.6 29.1
13:25 1012 29.88 842 24.86 4.8 40.6 64 -1.5 29.2
13:30 1012 29.88 842 24.86 4.9 40.8 63 -1.4 29.4
13:35 1013 29.91 842 24.86 4.9 40.9 66 -0.9 30.3
13:40 1013 29.91 842 24.86 4.8 40.7 67 -0.7 30.7
13:45 1013 29.91 842 24.86 4.7 40.4 69 -0.6 30.9
13:50 1013 29.91 842 24.86 4.4 40 66 -1.3 29.7
13:55 1013 29.91 842 24.86 4.3 39.7 68 -1.1 30
14:00 1013 29.91 842 24.86 4.3 39.7 69 -0.9 30.3
14:05 1013 29.91 842 24.86 3.9 39 69 -1.2 29.9
14:10 1013 29.91 842 24.86 3.9 39.1 71 -0.8 30.5
14:15 1013 29.91 842 24.86 3.8 38.9 73 -0.6 30.9
14:20 1013 29.91 842 24.86 3.8 38.9 72 -0.7 30.7
14:25 1013 29.91 842 24.86 3.8 38.8 75 -0.3 31.5
14:30 1013 29.91 842 24.86 3.6 38.5 78 0.1 32.1
14:35 1013 29.91 842 24.86 3.5 38.2 77 -0.2 31.7
14:40 1013 29.91 843 24.89 3.4 38.1 78 -0.1 31.7
14:45 1013 29.91 843 24.89 3.2 37.7 80 0 32.1
14:50 1013 29.91 843 24.89 2.9 37.1 83 0.3 32.5
14:55 1013 29.91 843 24.89 2.7 36.9 84 0.4 32.7
15:00 1014 29.94 843 24.89 2.6 36.7 85 0.3 32.5
15:05 1014 29.94 843 24.89 2.5 36.5 87 0.5 32.9
15:10 1014 29.94 843 24.89 2.6 36.8 85 0.4 32.8
15:15 1014 29.94 843 24.89 2.6 36.7 86 0.4 32.8
15:20 1014 29.94 843 24.89 2.6 36.7 86 0.5 32.9
15:25 1014 29.94 843 24.89 2.6 36.7 87 0.6 33
15:30 1014 29.94 843 24.89 2.8 37.1 86 0.7 33.2
15:35 1014 29.94 843 24.89 2.9 37.2 86 0.8 33.4
15:40 1014 29.94 843 24.89 2.9 37.1 85 0.6 33.1
15:45 1014 29.94 843 24.89 2.8 37 86 0.6 33.1
15:50 1014 29.94 844 24.92 2.6 36.8 86 0.5 33
15:55 1014 29.94 844 24.92 2.1 35.8 89 0.5 32.9
16:00 1015 29.97 844 24.92 2 35.6 90 0.5 32.8
16:05 1015 29.97 844 24.92 1.9 35.4 90 0.4 32.8
16:10 1015 29.97 844 24.92 1.9 35.3 90 0.4 32.8
16:15 1015 29.97 844 24.92 1.7 35.1 91 0.4 32.6
16:20 1015 29.97 844 24.92 1.5 34.8 91 0.3 32.5
16:25 1015 29.97 844 24.92 1.3 34.3 92 0.1 32.2
16:30 1015 29.97 844 24.92 1.1 34.1 92 0 32.1
16:35 1015 29.97 844 24.92 1 33.7 93 0 32
16:40 1015 29.97 844 24.92 0.9 33.7 93 -0 32
16:45 1015 29.97 845 24.95 0.9 33.5 94 -0 31.9
16:50 1015 29.97 845 24.95 0.9 33.6 94 0 32.1
16:55 1015 29.97 845 24.95 0.9 33.7 94 0 32.1
17:00 1016 30 845 24.95 0.9 33.7 94 0.1 32.1
17:05 1016 30 845 24.95 0.9 33.7 94 0.1 32.1
17:10 1016 30 845 24.95 1 33.8 94 0.1 32.2
17:15 1016 30 845 24.95 1 33.7 94 0.1 32.2
17:20 1016 30 845 24.95 0.9 33.6 94 0.1 32.1
17:25 1016 30 845 24.95 0.9 33.6 94 0.1 32.1
17:30 1016 30 845 24.95 0.9 33.6 94 0 32
17:35 1016 30 845 24.95 0.8 33.4 94 -0 32
17:40 1016 30 845 24.95 0.8 33.4 95 0 32
17:45 1016 30 846 24.98 0.7 33.3 95 -0 32
17:50 1016 30 846 24.98 0.7 33.3 95 0 32
17:55 1017 30.03 846 24.98 0.8 33.4 95 -0 32
18:00 1017 30.03 846 24.98 0.7 33.2 95 -0.1 31.9
18:05 1017 30.03 846 24.98 0.6 33 95 -0.1 31.8
18:10 1017 30.03 846 24.98 0.5 32.9 95 -0.1 31.7
18:15 1017 30.03 846 24.98 0.4 32.8 96 -0.2 31.7
18:20 1017 30.03 846 24.98 0.4 32.8 96 -0.1 31.8
18:25 1017 30.03 846 24.98 0.4 32.6 96 -0.2 31.6
18:30 1017 30.03 846 24.98 0.3 32.5 96 -0.3 31.5
18:35 1017 30.03 846 24.98 0.2 32.4 97 -0.3 31.5
18:40 1017 30.03 846 24.98 0.2 32.3 97 -0.3 31.5
18:45 1017 30.03 846 24.98 0.1 32.2 97 -0.3 31.4
18:50 1017 30.03 847 25.01 0.1 32.2 97 -0.3 31.5
18:55 1017 30.03 847 25.01 0.1 32.2 97 -0.3 31.5
19:00 1018 30.06 847 25.01 0.2 32.3 97 -0.3 31.5
19:05 1018 30.06 847 25.01 0.2 32.3 97 -0.3 31.5
19:10 1018 30.06 847 25.01 0.2 32.3 97 -0.3 31.5
19:15 1018 30.06 847 25.01 0.2 32.3 97 -0.3 31.5
19:20 1018 30.06 847 25.01 0.1 32.2 97 -0.3 31.5
19:25 1018 30.06 847 25.01 0.1 32.2 97 -0.3 31.5
19:30 1018 30.06 847 25.01 0.1 32.3 97 -0.3 31.4
19:35 1018 30.06 847 25.01 0.2 32.4 97 -0.3 31.5
19:40 1018 30.06 847 25.01 0.2 32.3 96 -0.4 31.3
19:45 1018 30.06 847 25.01 0.1 32.2 96 -0.4 31.2
19:50 1018 30.06 847 25.01 0.1 32.2 96 -0.4 31.3
19:55 1018 30.06 848 25.04 0.1 32.1 97 -0.4 31.3
20:00 1018 30.06 848 25.04 0.1 32.1 97 -0.4 31.2
20:05 1018 30.06 848 25.04 0.1 32.2 96 -0.4 31.3
20:10 1018 30.06 848 25.04 0.1 32.2 97 -0.4 31.3
20:15 1019 30.09 848 25.04 0.1 32.2 97 -0.4 31.3
20:20 1019 30.09 848 25.04 0.1 32.2 97 -0.4 31.3
20:25 1019 30.09 848 25.04 0.1 32.2 97 -0.4 31.3
20:30 1019 30.09 848 25.04 0.1 32.1 97 -0.4 31.3
20:35 1019 30.09 848 25.04 0.1 32.1 97 -0.4 31.3
20:40 1019 30.09 848 25.04 0.1 32.1 97 -0.4 31.3
20:45 1019 30.09 848 25.04 0 32 97 -0.5 31.2
20:50 1019 30.09 848 25.04 0 32 97 -0.5 31.2
20:55 1019 30.09 848 25.04 -0 32 97 -0.5 31.1
21:00 1019 30.09 848 25.04 -0 31.9 97 -0.5 31.2
21:05 1019 30.09 848 25.04 -0 32 97 -0.5 31.1
21:10 1019 30.09 849 25.07 0 32 97 -0.4 31.2
21:15 1019 30.09 849 25.07 0 32 97 -0.4 31.2
21:20 1019 30.09 849 25.07 -0 32 97 -0.4 31.2
21:25 1019 30.09 849 25.07 0 32 97 -0.5 31.2
21:30 1020 30.12 849 25.07 0 32 97 -0.4 31.2
21:35 1020 30.12 849 25.07 -0 32 97 -0.4 31.2
21:40 1020 30.12 849 25.07 0 32 97 -0.4 31.2
21:45 1020 30.12 849 25.07 -0 32 97 -0.5 31.2
21:50 1020 30.12 849 25.07 -0 32 97 -0.5 31.2
21:55 1020 30.12 849 25.07 -0 32 97 -0.5 31.1
22:00 1020 30.12 849 25.07 -0 31.9 97 -0.5 31.1
22:05 1020 30.12 849 25.07 -0.1 31.9 97 -0.5 31.1
22:10 1020 30.12 849 25.07 -0.1 31.8 97 -0.5 31
22:15 1020 30.12 849 25.07 -0.1 31.9 97 -0.5 31.1
22:20 1020 30.12 849 25.07 -0.1 31.8 97 -0.6 31
22:25 1020 30.12 849 25.07 -0.2 31.7 97 -0.6 31
22:30 1020 30.12 849 25.07 -0.2 31.7 97 -0.6 30.9
22:35 1020 30.12 850 25.1 -0.2 31.7 97 -0.6 31
22:40 1020 30.12 850 25.1 -0.2 31.6 97 -0.6 31
22:45 1020 30.12 850 25.1 -0.2 31.7 97 -0.5 31
22:50 1020 30.12 850 25.1 -0.2 31.7 97 -0.5 31
22:55 1021 30.15 850 25.1 -0.2 31.7 97 -0.6 31
23:00 1021 30.15 850 25.1 -0.2 31.6 97 -0.6 31
23:05 1021 30.15 850 25.1 -0.2 31.6 97 -0.6 30.9
23:10 1021 30.15 850 25.1 -0.2 31.6 97 -0.6 30.9
23:15 1021 30.15 850 25.1 -0.2 31.6 97 -0.6 30.9
23:20 1021 30.15 850 25.1 -0.2 31.6 97 -0.6 30.9
23:25 1021 30.15 850 25.1 -0.3 31.5 97 -0.6 30.9
23:30 1021 30.15 850 25.1 -0.2 31.6 98 -0.6 30.9
23:35 1021 30.15 850 25.1 -0.2 31.6 97 -0.6 31
23:40 1021 30.15 850 25.1 -0.2 31.6 97 -0.6 31
23:45 1021 30.15 850 25.1 -0.2 31.6 98 -0.6 31
23:50 1021 30.15 850 25.1 -0.2 31.6 98 -0.6 31
23:55 1021 30.15 850 25.1 -0.3 31.5 98 -0.6 30.9
24:00 1021 30.15 851 25.13 -0.3 31.5 97 -0.6 30.8